createdAt,value
2018-07-23T00:01:08.453Z,24.13
2018-07-23T00:03:36.695Z,22.90
2018-07-23T00:06:04.943Z,22.97
2018-07-23T00:08:33.125Z,22.80
2018-07-23T00:11:01.342Z,22.70
2018-07-23T00:13:29.546Z,21.60
2018-07-23T00:15:57.775Z,22.07
2018-07-23T00:18:25.985Z,20.37
2018-07-23T00:20:54.216Z,22.17
2018-07-23T00:23:22.726Z,22.87
2018-07-23T00:25:50.921Z,21.00
2018-07-23T00:28:19.392Z,21.47
2018-07-23T00:30:47.605Z,20.93
2018-07-23T00:33:15.830Z,20.97
2018-07-23T00:35:44.026Z,19.47
2018-07-23T00:38:12.277Z,19.30
2018-07-23T00:40:40.506Z,19.60
2018-07-23T00:43:08.722Z,19.70
2018-07-23T00:45:36.925Z,22.17
2018-07-23T00:48:05.106Z,21.80
2018-07-23T00:50:33.318Z,19.60
2018-07-23T00:53:01.506Z,18.93
2018-07-23T00:55:29.745Z,18.83
2018-07-23T00:57:58.006Z,19.60
2018-07-23T01:00:26.246Z,18.40
2018-07-23T01:02:54.469Z,19.47
2018-07-23T01:05:22.651Z,19.30
2018-07-23T01:07:50.997Z,19.07
2018-07-23T01:10:19.197Z,19.17
2018-07-23T01:12:47.423Z,18.87
2018-07-23T01:15:15.645Z,20.07
2018-07-23T01:17:43.894Z,18.60
2018-07-23T01:20:12.090Z,18.70
2018-07-23T01:22:40.303Z,18.93
2018-07-23T01:25:08.497Z,20.20
2018-07-23T01:27:36.721Z,21.30
2018-07-23T01:30:05.357Z,19.40
2018-07-23T01:32:33.561Z,20.10
2018-07-23T01:35:01.753Z,20.60
2018-07-23T01:37:29.968Z,18.93
2018-07-23T01:39:58.184Z,19.27
2018-07-23T01:42:26.369Z,18.37
2018-07-23T01:44:54.594Z,20.37
2018-07-23T01:47:22.803Z,19.90
2018-07-23T01:49:51.013Z,20.10
2018-07-23T01:52:19.241Z,19.80
2018-07-23T01:54:47.470Z,19.83
2018-07-23T01:57:15.664Z,18.30
2018-07-23T01:59:43.856Z,20.90
2018-07-23T02:02:12.058Z,18.47
2018-07-23T02:04:40.256Z,20.03
2018-07-23T02:07:08.645Z,18.30
2018-07-23T02:09:36.858Z,18.87
2018-07-23T02:12:05.693Z,17.90
2018-07-23T02:14:33.922Z,18.20
2018-07-23T02:17:02.122Z,18.67
2018-07-23T02:19:30.305Z,17.40
2018-07-23T02:21:58.493Z,18.77
2018-07-23T02:24:26.723Z,17.20
2018-07-23T02:26:54.933Z,17.80
2018-07-23T02:29:23.341Z,17.23
2018-07-23T02:31:51.561Z,18.30
2018-07-23T02:34:19.953Z,17.30
2018-07-23T02:36:48.179Z,17.93
2018-07-23T02:39:16.389Z,18.30
2018-07-23T02:41:44.589Z,17.97
2018-07-23T02:44:12.803Z,18.20
2018-07-23T02:46:40.771Z,17.93
2018-07-23T02:49:08.978Z,17.93
2018-07-23T02:51:37.190Z,17.77
2018-07-23T02:54:05.393Z,19.20
2018-07-23T02:56:33.577Z,17.93
2018-07-23T02:59:01.784Z,18.47
2018-07-23T03:01:29.970Z,17.30
2018-07-23T03:03:58.182Z,19.33
2018-07-23T03:06:28.022Z,17.60
2018-07-23T03:08:56.471Z,17.90
2018-07-23T03:11:25.158Z,18.00
2018-07-23T03:13:53.374Z,17.33
2018-07-23T03:16:22.149Z,18.10
2018-07-23T03:18:51.110Z,19.17
2018-07-23T03:21:19.331Z,17.73
2018-07-23T03:23:47.522Z,16.70
2018-07-23T03:26:15.726Z,17.90
2018-07-23T03:28:43.932Z,18.07
2018-07-23T03:31:11.891Z,16.53
2018-07-23T03:33:40.085Z,18.60
2018-07-23T03:36:08.301Z,19.23
2018-07-23T03:38:36.473Z,17.83
2018-07-23T03:41:04.957Z,19.13
2018-07-23T03:43:33.150Z,18.93
2018-07-23T03:46:01.376Z,19.87
2018-07-23T03:48:29.567Z,18.90
2018-07-23T03:50:57.772Z,18.63
2018-07-23T03:53:25.956Z,21.17
2018-07-23T03:55:54.176Z,21.07
2018-07-23T03:58:22.377Z,21.60
2018-07-23T04:00:50.749Z,21.37
2018-07-23T04:03:19.121Z,20.70
2018-07-23T04:12:31.406Z,20.63
2018-07-23T04:15:00.142Z,21.30
2018-07-23T04:17:28.362Z,21.90
2018-07-23T04:19:56.549Z,22.67
2018-07-23T04:22:24.764Z,20.90
2018-07-23T04:24:53.109Z,21.60
2018-07-23T04:27:21.297Z,21.83
2018-07-23T04:29:49.518Z,20.70
2018-07-23T04:32:17.753Z,21.47
2018-07-23T04:34:45.965Z,21.70
2018-07-23T04:37:14.165Z,21.53
2018-07-23T04:39:42.391Z,22.50
2018-07-23T04:42:11.106Z,21.17
2018-07-23T04:44:39.457Z,21.07
2018-07-23T04:47:07.841Z,21.60
2018-07-23T04:49:36.025Z,20.30
2018-07-23T04:52:04.231Z,21.77
2018-07-23T04:54:32.453Z,19.30
2018-07-23T04:57:00.693Z,22.17
2018-07-23T04:59:28.853Z,22.47
2018-07-23T05:01:57.037Z,22.43
2018-07-23T05:04:25.243Z,22.47
2018-07-23T05:06:53.459Z,22.13
2018-07-23T05:09:21.699Z,22.03
2018-07-23T05:11:50.065Z,21.80
2018-07-23T05:14:18.236Z,22.07
2018-07-23T05:16:47.044Z,22.90
2018-07-23T05:19:15.241Z,21.57
2018-07-23T05:21:43.458Z,20.57
2018-07-23T05:24:11.703Z,21.20
2018-07-23T05:26:39.910Z,20.50
2018-07-23T05:29:08.105Z,20.30
2018-07-23T05:31:36.513Z,18.93
2018-07-23T05:34:04.730Z,19.73
2018-07-23T05:36:32.930Z,19.77
2018-07-23T05:39:01.158Z,18.57
2018-07-23T05:41:29.357Z,19.57
2018-07-23T05:43:57.323Z,19.67
2018-07-23T05:46:25.546Z,19.00
2018-07-23T05:48:53.754Z,18.60
2018-07-23T05:51:21.991Z,18.73
2018-07-23T05:53:50.203Z,20.00
2018-07-23T05:56:18.409Z,18.30
2018-07-23T05:58:46.628Z,19.43
2018-07-23T06:01:14.887Z,19.90
2018-07-23T06:03:43.228Z,19.30
2018-07-23T06:06:11.389Z,18.77
2018-07-23T06:08:39.569Z,19.60
2018-07-23T06:11:07.834Z,20.10
2018-07-23T06:13:36.077Z,20.23
2018-07-23T06:16:04.286Z,19.80
2018-07-23T06:18:32.695Z,19.60
2018-07-23T06:21:00.887Z,20.43
2018-07-23T06:23:29.104Z,20.60
2018-07-23T06:25:57.309Z,20.53
2018-07-23T06:28:25.493Z,19.57
2018-07-23T06:30:53.472Z,20.63
2018-07-23T06:33:21.690Z,24.67
2018-07-23T06:35:51.521Z,22.60
2018-07-23T06:38:19.840Z,24.47
2018-07-23T06:40:48.046Z,23.60
2018-07-23T06:43:16.273Z,36.00
2018-07-23T06:45:44.490Z,22.93
2018-07-23T06:48:12.727Z,22.83
2018-07-23T06:50:41.121Z,22.47
2018-07-23T06:53:09.630Z,22.60
2018-07-23T06:55:37.849Z,23.03
2018-07-23T06:58:06.178Z,23.13
2018-07-23T07:00:34.411Z,23.87
2018-07-23T07:03:02.835Z,24.20
2018-07-23T07:05:31.120Z,29.07
2018-07-23T07:07:59.330Z,26.97
2018-07-23T07:10:27.682Z,28.30
2018-07-23T07:12:55.950Z,34.90
2018-07-23T07:15:24.198Z,25.90
2018-07-23T07:17:52.406Z,24.57
2018-07-23T07:20:21.255Z,25.53
2018-07-23T07:22:49.526Z,25.10
2018-07-23T07:25:17.805Z,27.93
2018-07-23T07:27:46.070Z,28.30
2018-07-23T07:30:14.355Z,26.90
2018-07-23T07:32:42.446Z,27.27
2018-07-23T07:35:10.691Z,25.53
2018-07-23T07:37:39.034Z,27.10
2018-07-23T07:40:07.330Z,27.67
2018-07-23T07:42:35.638Z,26.50
2018-07-23T07:45:04.658Z,28.40
2018-07-23T07:47:33.037Z,25.40
2018-07-23T07:50:01.469Z,25.50
2018-07-23T07:52:30.101Z,24.80
2018-07-23T07:54:58.413Z,26.50
2018-07-23T07:57:26.791Z,26.73
2018-07-23T07:59:55.032Z,26.60
2018-07-23T08:02:23.386Z,25.17
2018-07-23T08:04:51.850Z,29.37
2018-07-23T08:07:20.229Z,25.73
2018-07-23T08:09:48.654Z,27.40
2018-07-23T08:12:16.935Z,26.73
2018-07-23T08:14:45.209Z,26.40
2018-07-23T08:17:13.497Z,26.20
2018-07-23T08:19:41.799Z,23.97
2018-07-23T08:22:10.119Z,25.57
2018-07-23T08:24:38.719Z,25.50
2018-07-23T08:27:07.199Z,24.83
2018-07-23T08:29:35.611Z,24.40
2018-07-23T08:32:04.315Z,22.87
2018-07-23T08:34:32.186Z,26.90
2018-07-23T08:37:00.440Z,24.70
2018-07-23T08:39:29.351Z,24.73
2018-07-23T08:41:57.745Z,24.77
2018-07-23T08:44:26.105Z,25.77
2018-07-23T08:46:55.232Z,24.57
2018-07-23T08:49:23.709Z,25.57
2018-07-23T08:51:52.213Z,26.23
2018-07-23T08:54:20.569Z,26.27
2018-07-23T08:56:48.977Z,26.83
2018-07-23T08:59:17.576Z,27.30
2018-07-23T09:01:46.036Z,28.77
2018-07-23T09:04:14.556Z,26.23
2018-07-23T09:06:42.945Z,28.33
2018-07-23T09:09:11.951Z,27.70
2018-07-23T09:11:40.785Z,29.70
2018-07-23T09:14:09.173Z,30.00
2018-07-23T09:16:38.029Z,29.50
2018-07-23T09:19:06.414Z,28.40
2018-07-23T09:21:34.753Z,28.63
2018-07-23T09:24:03.147Z,25.40
2018-07-23T09:26:31.500Z,26.60
2018-07-23T09:28:59.850Z,26.97
2018-07-23T09:31:28.796Z,27.07
2018-07-23T09:33:57.286Z,30.10
2018-07-23T09:36:25.598Z,28.20
2018-07-23T09:38:53.942Z,30.17
2018-07-23T09:41:22.250Z,23.33
2018-07-23T09:43:50.610Z,26.13
2018-07-23T09:46:19.011Z,30.43
2018-07-23T09:48:47.329Z,30.63
2018-07-23T09:51:15.759Z,29.73
2018-07-23T09:53:44.670Z,30.10
2018-07-23T09:56:13.286Z,29.13
2018-07-23T09:58:41.629Z,29.77
2018-07-23T10:01:13.210Z,26.50
2018-07-23T10:03:42.298Z,26.87
2018-07-23T10:06:10.833Z,27.50
2018-07-23T10:08:39.089Z,29.40
2018-07-23T10:11:07.465Z,28.80
2018-07-23T10:13:35.702Z,29.73
2018-07-23T10:16:04.169Z,27.90
2018-07-23T10:18:32.439Z,33.97
2018-07-23T10:21:00.709Z,33.73
2018-07-23T10:23:29.112Z,28.87
2018-07-23T10:25:57.517Z,28.57
2018-07-23T10:28:25.920Z,27.77
2018-07-23T10:30:54.247Z,30.10
2018-07-23T10:33:22.804Z,29.63
2018-07-23T10:35:51.082Z,28.07
2018-07-23T10:38:19.305Z,29.27
2018-07-23T10:40:47.597Z,33.17
2018-07-23T10:43:15.705Z,28.90
2018-07-23T10:45:43.947Z,30.27
2018-07-23T10:48:12.721Z,30.63
2018-07-23T10:50:40.686Z,29.00
2018-07-23T10:53:08.952Z,29.77
2018-07-23T10:55:37.245Z,26.80
2018-07-23T10:58:05.646Z,26.40
2018-07-23T11:00:33.903Z,27.50
2018-07-23T11:03:02.311Z,26.07
2018-07-23T11:05:30.586Z,26.13
2018-07-23T11:07:58.789Z,27.33
2018-07-23T11:10:27.031Z,28.90
2018-07-23T11:12:55.272Z,29.47
2018-07-23T11:15:23.704Z,31.07
2018-07-23T11:17:52.028Z,30.90
2018-07-23T11:20:20.362Z,30.50
2018-07-23T11:22:48.636Z,29.00
2018-07-23T11:25:38.704Z,30.27
2018-07-23T11:27:45.217Z,29.47
2018-07-23T11:30:13.531Z,25.57
2018-07-23T11:32:41.929Z,26.83
2018-07-23T11:35:10.182Z,25.63
2018-07-23T11:37:38.910Z,28.00
2018-07-23T11:40:07.263Z,30.13
2018-07-23T11:42:35.640Z,27.03
2018-07-23T11:45:04.008Z,25.70
2018-07-23T11:47:32.360Z,25.93
2018-07-23T11:50:00.909Z,24.07
2018-07-23T11:52:29.156Z,26.33
2018-07-23T11:54:57.381Z,23.60
2018-07-23T11:57:25.720Z,26.27
2018-07-23T11:59:54.637Z,27.40
2018-07-23T12:02:23.207Z,24.87
2018-07-23T12:04:51.778Z,29.07
2018-07-23T12:07:20.580Z,25.20
2018-07-23T12:09:57.133Z,18.87
2018-07-23T12:12:25.554Z,20.43
2018-07-23T12:14:53.905Z,22.67
2018-07-23T12:17:22.746Z,22.03
2018-07-23T12:19:51.019Z,25.40
2018-07-23T12:22:19.358Z,20.60
2018-07-23T12:24:47.830Z,20.33
2018-07-23T12:27:16.108Z,21.53
2018-07-23T12:29:44.587Z,20.33
2018-07-23T12:32:12.903Z,23.93
2018-07-23T12:34:41.269Z,24.77
2018-07-23T12:37:09.683Z,23.17
2018-07-23T12:39:37.962Z,23.40
2018-07-23T12:42:06.549Z,24.33
2018-07-23T12:44:34.867Z,23.20
2018-07-23T12:47:03.263Z,24.63
2018-07-23T12:49:31.539Z,24.33
2018-07-23T12:52:00.158Z,25.00
2018-07-23T12:54:28.476Z,23.13
2018-07-23T12:56:56.769Z,22.60
2018-07-23T12:59:25.090Z,23.20
2018-07-23T13:01:53.304Z,25.07
2018-07-23T13:04:21.647Z,23.57
2018-07-23T13:06:49.927Z,24.47
2018-07-23T13:09:18.288Z,26.10
2018-07-23T13:11:46.560Z,24.00
2018-07-23T13:14:14.908Z,24.90
2018-07-23T13:16:43.204Z,25.10
2018-07-23T13:19:12.142Z,25.83
2018-07-23T13:21:40.474Z,25.60
2018-07-23T13:24:08.731Z,22.60
2018-07-23T13:26:37.177Z,25.73
2018-07-23T13:29:06.061Z,27.27
2018-07-23T13:31:34.464Z,23.63
2018-07-23T13:34:03.676Z,25.70
2018-07-23T13:36:33.181Z,24.97
2018-07-23T13:39:01.458Z,22.70
2018-07-23T13:41:29.921Z,21.40
2018-07-23T13:43:58.218Z,19.97
2018-07-23T13:46:26.576Z,20.07
2018-07-23T13:48:55.373Z,20.83
2018-07-23T13:51:23.586Z,22.20
2018-07-23T13:53:51.896Z,23.40
2018-07-23T13:56:20.162Z,21.97
2018-07-23T13:58:48.439Z,26.13
2018-07-23T14:01:16.772Z,21.93
2018-07-23T14:03:45.063Z,22.87
2018-07-23T14:06:13.485Z,24.13
2018-07-23T14:08:41.457Z,23.20
2018-07-23T14:11:09.766Z,23.33
2018-07-23T14:13:38.025Z,25.93
2018-07-23T14:16:06.322Z,22.70
2018-07-23T14:18:34.523Z,22.87
2018-07-23T14:21:03.024Z,25.17
2018-07-23T14:23:31.539Z,23.03
2018-07-23T14:25:59.773Z,21.73
2018-07-23T14:28:28.296Z,20.20
2018-07-23T14:30:56.542Z,21.23
2018-07-23T14:33:25.054Z,18.60
2018-07-23T14:35:53.261Z,19.70
2018-07-23T14:38:21.485Z,20.57
2018-07-23T14:40:50.573Z,16.60
2018-07-23T14:43:19.270Z,15.23
2018-07-23T14:45:47.525Z,15.30
2018-07-23T14:48:15.518Z,15.10
2018-07-23T14:50:43.789Z,19.43
2018-07-23T14:53:12.112Z,15.47
2018-07-23T14:55:40.411Z,14.80
2018-07-23T14:58:08.621Z,14.17
2018-07-23T15:00:36.911Z,13.17
2018-07-23T15:03:05.551Z,12.53
2018-07-23T15:05:34.030Z,11.63
2018-07-23T15:08:02.281Z,11.43
2018-07-23T15:10:30.582Z,9.90
2018-07-23T15:12:58.803Z,10.27
2018-07-23T15:15:27.032Z,10.33
2018-07-23T15:17:55.298Z,11.57
2018-07-23T15:20:23.632Z,11.10
2018-07-23T15:22:52.014Z,11.17
2018-07-23T15:25:20.287Z,11.33
2018-07-23T15:27:48.636Z,11.40
2018-07-23T15:30:16.870Z,11.30
2018-07-23T15:32:45.121Z,10.37
2018-07-23T15:35:13.317Z,11.10
2018-07-23T15:37:41.691Z,12.27
2018-07-23T15:40:10.033Z,13.20
2018-07-23T15:42:38.273Z,12.17
2018-07-23T15:45:06.587Z,12.90
2018-07-23T15:47:35.037Z,12.20
2018-07-23T15:50:04.762Z,12.60
2018-07-23T15:52:32.805Z,12.60
2018-07-23T15:55:01.026Z,13.93
2018-07-23T15:57:29.241Z,13.60
2018-07-23T15:59:57.470Z,12.57
2018-07-23T16:02:25.766Z,13.73
2018-07-23T16:04:54.023Z,14.80
2018-07-23T16:07:22.245Z,13.43
2018-07-23T16:09:50.494Z,13.63
2018-07-23T16:12:19.277Z,13.87
2018-07-23T16:14:47.500Z,13.63
2018-07-23T16:17:15.715Z,13.10
2018-07-23T16:19:43.952Z,13.20
2018-07-23T16:22:12.259Z,13.63
2018-07-23T16:24:40.556Z,12.80
2018-07-23T16:27:08.813Z,13.17
2018-07-23T16:29:37.054Z,13.20
2018-07-23T16:32:05.265Z,12.23
2018-07-23T16:34:33.520Z,13.50
2018-07-23T16:37:01.833Z,12.80
2018-07-23T16:39:30.038Z,13.37
2018-07-23T16:41:58.277Z,13.13
2018-07-23T16:44:26.522Z,12.93
2018-07-23T16:46:54.762Z,12.73
2018-07-23T16:49:22.956Z,12.97
2018-07-23T16:51:51.358Z,13.80
2018-07-23T16:54:19.569Z,13.00
2018-07-23T16:56:47.813Z,13.20
2018-07-23T16:59:16.066Z,13.33
2018-07-23T17:01:44.300Z,14.10
2018-07-23T17:04:12.769Z,14.67
2018-07-23T17:06:40.996Z,15.20
2018-07-23T17:09:11.261Z,14.87
2018-07-23T17:11:39.489Z,13.87
2018-07-23T17:14:08.025Z,15.17
2018-07-23T17:16:36.511Z,16.53
2018-07-23T17:19:04.770Z,15.03
2018-07-23T17:21:32.983Z,17.93
2018-07-23T17:24:01.336Z,23.70
2018-07-23T17:26:29.557Z,15.97
2018-07-23T17:28:57.778Z,16.93
2018-07-23T17:31:25.952Z,16.97
2018-07-23T17:33:54.373Z,17.40
2018-07-23T17:36:22.661Z,17.63
2018-07-23T17:38:51.094Z,17.57
2018-07-23T17:41:19.321Z,19.27
2018-07-23T17:43:47.625Z,17.63
2018-07-23T17:46:15.863Z,17.77
2018-07-23T17:48:44.091Z,17.93
2018-07-23T17:51:12.329Z,17.63
2018-07-23T17:53:40.832Z,18.57
2018-07-23T17:56:09.085Z,18.53
2018-07-23T17:58:37.305Z,18.17
2018-07-23T18:01:05.805Z,18.07
2018-07-23T18:03:34.013Z,20.40
2018-07-23T18:06:02.494Z,20.00
2018-07-23T18:08:30.722Z,20.83
2018-07-23T18:10:58.938Z,21.00
2018-07-23T18:13:27.125Z,24.40
2018-07-23T18:18:58.936Z,25.70
2018-07-23T18:21:27.401Z,27.77
2018-07-23T18:23:55.633Z,27.73
2018-07-23T18:26:23.887Z,30.10
2018-07-23T18:28:52.160Z,30.30
2018-07-23T18:31:20.493Z,27.47
2018-07-23T18:33:48.755Z,29.83
2018-07-23T18:36:17.675Z,32.10
2018-07-23T18:38:46.216Z,32.33
2018-07-23T18:41:14.477Z,33.80
2018-07-23T18:43:42.804Z,34.43
2018-07-23T18:46:11.039Z,33.27
2018-07-23T18:49:48.745Z,32.80
2018-07-23T18:52:17.741Z,29.00
2018-07-23T18:54:47.254Z,34.80
2018-07-23T19:03:59.432Z,31.90
2018-07-23T19:06:28.457Z,31.43
2018-07-23T19:08:56.702Z,35.13
2018-07-23T19:11:24.990Z,34.70
2018-07-23T19:13:53.244Z,40.10
2018-07-23T19:16:21.493Z,39.03
2018-07-23T19:18:49.448Z,37.00
2018-07-23T19:21:17.672Z,38.07
2018-07-23T19:23:45.894Z,37.93
2018-07-23T19:26:14.146Z,37.37
2018-07-23T19:28:42.500Z,38.43
2018-07-23T19:31:10.899Z,35.47
2018-07-23T19:33:39.101Z,34.27
2018-07-23T19:36:07.324Z,33.90
2018-07-23T19:38:35.541Z,33.90
2018-07-23T19:41:03.822Z,33.77
2018-07-23T19:43:32.068Z,32.13
2018-07-23T19:46:00.292Z,33.20
2018-07-23T19:48:28.537Z,31.90
2018-07-23T19:50:56.789Z,33.93
2018-07-23T19:53:25.101Z,33.90
2018-07-23T19:55:53.266Z,33.70
2018-07-23T19:58:21.570Z,35.17
2018-07-23T20:00:49.787Z,36.03
2018-07-23T20:03:18.069Z,40.33
2018-07-23T20:05:46.406Z,37.23
2018-07-23T20:08:14.617Z,39.87
2018-07-23T20:10:43.147Z,38.37
2018-07-23T20:13:11.438Z,37.57
2018-07-23T20:15:39.647Z,39.30
2018-07-23T20:18:07.877Z,34.87
2018-07-23T20:20:36.629Z,31.90
2018-07-23T20:23:04.869Z,30.63
2018-07-23T20:25:33.075Z,28.23
2018-07-23T20:28:01.529Z,23.73
2018-07-23T20:30:30.342Z,24.80
2018-07-23T20:32:58.606Z,25.40
2018-07-23T20:35:26.809Z,25.23
2018-07-23T20:37:55.078Z,23.97
2018-07-23T20:40:23.347Z,22.13
2018-07-23T20:42:51.465Z,23.30
2018-07-23T20:45:19.702Z,21.20
2018-07-23T20:47:47.989Z,20.27
2018-07-23T20:50:16.278Z,20.40
2018-07-23T20:52:44.495Z,18.00
2018-07-23T20:55:12.788Z,19.40
2018-07-23T20:57:41.026Z,20.60
2018-07-23T21:00:09.237Z,20.03
2018-07-23T21:02:37.537Z,20.13
2018-07-23T21:05:05.910Z,20.97
2018-07-23T21:09:03.374Z,20.30
2018-07-23T21:11:31.783Z,21.47
2018-07-23T21:14:00.023Z,21.93
2018-07-23T21:16:28.266Z,20.63
2018-07-23T21:18:56.508Z,19.50
2018-07-23T21:21:24.729Z,20.00
2018-07-23T21:23:52.959Z,18.63
2018-07-23T21:26:21.190Z,20.13
2018-07-23T21:28:49.445Z,21.07
2018-07-23T21:31:17.664Z,20.63
2018-07-23T21:33:45.948Z,21.03
2018-07-23T21:36:14.196Z,22.20
2018-07-23T21:38:42.449Z,20.30
2018-07-23T21:41:10.730Z,21.73
2018-07-23T21:43:38.977Z,22.07
2018-07-23T21:46:07.179Z,20.40
2018-07-23T21:48:35.436Z,22.13
2018-07-23T21:51:03.702Z,20.60
2018-07-23T21:53:31.905Z,22.70
2018-07-23T21:56:00.134Z,23.83
2018-07-23T21:58:28.342Z,22.40
2018-07-23T22:00:56.554Z,22.97
2018-07-23T22:03:24.761Z,22.90
2018-07-23T22:05:52.995Z,21.50
2018-07-23T22:08:21.215Z,23.23
2018-07-23T22:10:49.449Z,22.37
2018-07-23T22:13:17.677Z,22.87
2018-07-23T22:15:45.905Z,23.40
2018-07-23T22:18:14.122Z,22.10
2018-07-23T22:20:42.335Z,22.53
2018-07-23T22:23:10.577Z,24.00
2018-07-23T22:25:38.827Z,22.40
2018-07-23T22:28:07.053Z,24.73
2018-07-23T22:30:35.261Z,23.70
2018-07-23T22:33:03.495Z,24.17
2018-07-23T22:35:31.774Z,24.23
2018-07-23T22:37:59.981Z,25.57
2018-07-23T22:40:28.199Z,26.63
2018-07-23T22:42:56.429Z,25.00
2018-07-23T22:45:24.662Z,29.13
2018-07-23T22:47:52.874Z,26.27
2018-07-23T22:50:21.114Z,27.97
2018-07-23T22:52:49.357Z,28.23
2018-07-23T22:55:17.596Z,29.00
2018-07-23T22:57:45.865Z,28.70
2018-07-23T23:00:14.107Z,27.37
2018-07-23T23:02:42.353Z,28.93
2018-07-23T23:05:10.639Z,27.63
2018-07-23T23:07:38.893Z,27.27
2018-07-23T23:10:07.132Z,29.50
2018-07-23T23:12:35.366Z,29.00
2018-07-23T23:15:03.650Z,28.63
2018-07-23T23:17:31.865Z,27.10
2018-07-23T23:20:00.106Z,27.53
2018-07-23T23:22:28.465Z,28.27
2018-07-23T23:24:56.674Z,26.60
2018-07-23T23:27:24.936Z,25.60
2018-07-23T23:29:53.198Z,26.63
2018-07-23T23:32:21.417Z,27.60
2018-07-23T23:34:49.739Z,28.77
2018-07-23T23:37:17.961Z,24.67
2018-07-23T23:39:46.198Z,23.83
2018-07-23T23:42:14.473Z,28.70
2018-07-23T23:44:43.024Z,24.37
2018-07-23T23:47:11.225Z,26.67
2018-07-23T23:49:39.445Z,26.30
2018-07-23T23:52:07.725Z,28.07
2018-07-23T23:54:35.657Z,25.77
2018-07-23T23:57:03.925Z,25.10
2018-07-23T23:59:32.166Z,27.80
